createdAt,value
2023-05-18T00:01:49.420Z,9.11
2023-05-18T00:03:55.061Z,9.12
2023-05-18T00:06:04.195Z,9.09
2023-05-18T00:08:07.983Z,9.08
2023-05-18T00:10:13.235Z,9.05
2023-05-18T00:12:15.933Z,9.01
2023-05-18T00:14:18.805Z,8.98
2023-05-18T00:16:21.731Z,8.99
2023-05-18T00:18:26.532Z,8.99
2023-05-18T00:20:29.633Z,8.95
2023-05-18T00:22:35.097Z,8.94
2023-05-18T00:24:37.682Z,8.94
2023-05-18T00:26:42.557Z,8.95
2023-05-18T00:28:45.172Z,8.96
2023-05-18T00:30:47.900Z,8.97
2023-05-18T00:32:50.741Z,8.92
2023-05-18T00:34:53.456Z,8.88
2023-05-18T00:36:56.082Z,8.89
2023-05-18T00:38:58.682Z,8.94
2023-05-18T00:41:01.334Z,8.86
2023-05-18T00:43:05.772Z,8.83
2023-05-18T00:45:09.515Z,8.79
2023-05-18T00:47:12.113Z,8.80
2023-05-18T00:49:15.152Z,8.71
2023-05-18T00:51:18.209Z,8.68
2023-05-18T00:53:20.949Z,8.69
2023-05-18T00:55:23.806Z,8.63
2023-05-18T00:57:26.833Z,8.58
2023-05-18T00:59:32.764Z,8.57
2023-05-18T01:01:36.202Z,8.56
2023-05-18T01:03:39.514Z,8.54
2023-05-18T01:05:42.361Z,8.54
2023-05-18T01:07:45.126Z,8.53
2023-05-18T01:09:47.792Z,8.53
2023-05-18T01:11:58.276Z,8.53
2023-05-18T01:14:09.481Z,8.53
2023-05-18T01:16:19.523Z,8.53
2023-05-18T01:18:29.086Z,8.52
2023-05-18T01:20:37.866Z,8.53
2023-05-18T01:22:51.742Z,8.52
2023-05-18T01:25:03.061Z,8.53
2023-05-18T01:27:09.029Z,8.50
2023-05-18T01:29:14.886Z,8.50
2023-05-18T01:31:17.774Z,8.48
2023-05-18T01:33:20.790Z,8.47
2023-05-18T01:35:23.525Z,8.45
2023-05-18T01:37:26.151Z,8.43
2023-05-18T01:39:28.802Z,8.38
2023-05-18T01:41:36.378Z,8.33
2023-05-18T01:43:53.903Z,8.34
2023-05-18T01:46:02.909Z,8.30
2023-05-18T01:48:08.372Z,8.27
2023-05-18T01:50:14.886Z,8.17
2023-05-18T01:52:20.392Z,8.15
2023-05-18T01:54:25.871Z,8.03
2023-05-18T01:56:29.017Z,7.99
2023-05-18T01:58:31.830Z,7.97
2023-05-18T02:00:36.573Z,8.00
2023-05-18T02:02:39.306Z,7.96
2023-05-18T02:04:41.973Z,7.95
2023-05-18T02:06:44.600Z,7.93
2023-05-18T02:08:47.219Z,7.93
2023-05-18T02:10:49.860Z,7.96
2023-05-18T02:12:53.917Z,7.97
2023-05-18T02:14:58.333Z,7.99
2023-05-18T02:17:02.287Z,7.98
2023-05-18T02:19:04.927Z,7.96
2023-05-18T02:21:09.410Z,7.93
2023-05-18T02:23:11.998Z,7.91
2023-05-18T02:25:14.637Z,7.90
2023-05-18T02:27:17.253Z,7.88
2023-05-18T02:29:19.874Z,7.86
2023-05-18T02:31:22.519Z,7.86
2023-05-18T02:33:26.658Z,7.85
2023-05-18T02:35:29.804Z,7.84
2023-05-18T02:37:34.376Z,7.83
2023-05-18T02:39:36.947Z,7.84
2023-05-18T02:41:39.631Z,7.84
2023-05-18T02:43:42.231Z,7.84
2023-05-18T02:45:44.866Z,7.88
2023-05-18T02:47:47.997Z,7.86
2023-05-18T02:49:52.609Z,7.82
2023-05-18T02:51:55.234Z,7.80
2023-05-18T02:53:57.950Z,7.79
2023-05-18T02:56:03.511Z,7.78
2023-05-18T02:58:06.208Z,7.79
2023-05-18T03:00:11.608Z,7.79
2023-05-18T03:02:16.514Z,7.71
2023-05-18T03:04:19.964Z,7.68
2023-05-18T03:06:26.719Z,7.64
2023-05-18T03:08:31.473Z,7.60
2023-05-18T03:10:34.078Z,7.57
2023-05-18T03:12:36.686Z,7.56
2023-05-18T03:14:39.306Z,7.55
2023-05-18T03:16:41.922Z,7.54
2023-05-18T03:18:44.556Z,7.57
2023-05-18T03:20:47.258Z,7.55
2023-05-18T03:22:51.188Z,7.48
2023-05-18T03:24:55.462Z,7.41
2023-05-18T03:26:58.170Z,7.41
2023-05-18T03:29:01.210Z,7.39
2023-05-18T03:31:03.958Z,7.41
2023-05-18T03:33:06.636Z,7.39
2023-05-18T03:35:12.336Z,7.37
2023-05-18T03:37:15.936Z,7.38
2023-05-18T03:39:19.910Z,7.38
2023-05-18T03:41:22.976Z,7.37
2023-05-18T03:43:26.144Z,7.37
2023-05-18T03:45:29.044Z,7.33
2023-05-18T03:47:32.262Z,7.32
2023-05-18T03:49:35.841Z,7.32
2023-05-18T03:51:38.424Z,7.30
2023-05-18T03:53:42.194Z,7.30
2023-05-18T03:55:46.243Z,7.30
2023-05-18T03:57:48.960Z,7.27
2023-05-18T03:59:51.762Z,7.24
2023-05-18T04:01:54.764Z,7.22
2023-05-18T04:03:57.926Z,7.20
2023-05-18T04:06:00.625Z,7.21
2023-05-18T04:08:03.232Z,7.21
2023-05-18T04:10:07.404Z,7.21
2023-05-18T04:12:11.565Z,7.20
2023-05-18T04:14:15.125Z,7.22
2023-05-18T04:16:18.211Z,7.24
2023-05-18T04:18:21.018Z,7.21
2023-05-18T04:20:23.589Z,7.20
2023-05-18T04:22:29.781Z,7.19
2023-05-18T04:24:32.777Z,7.18
2023-05-18T04:26:38.456Z,7.17
2023-05-18T04:28:43.196Z,7.20
2023-05-18T04:30:46.099Z,7.21
2023-05-18T04:32:49.110Z,7.24
2023-05-18T04:34:51.742Z,7.22
2023-05-18T04:36:55.892Z,7.23
2023-05-18T04:38:59.521Z,7.21
2023-05-18T04:41:05.334Z,7.21
2023-05-18T04:43:08.376Z,7.24
2023-05-18T04:45:16.441Z,7.27
2023-05-18T04:47:19.033Z,7.30
2023-05-18T04:49:22.956Z,7.34
2023-05-18T04:51:25.845Z,7.37
2023-05-18T04:53:28.443Z,7.41
2023-05-18T04:55:31.431Z,7.43
2023-05-18T04:57:34.227Z,7.44
2023-05-18T04:59:37.281Z,7.48
2023-05-18T05:01:41.324Z,7.51
2023-05-18T05:03:44.735Z,7.52
2023-05-18T05:05:47.399Z,7.55
2023-05-18T05:07:50.614Z,7.58
2023-05-18T05:09:53.226Z,7.62
2023-05-18T05:11:56.463Z,7.66
2023-05-18T05:13:59.202Z,7.69
2023-05-18T05:16:01.938Z,7.70
2023-05-18T05:18:06.197Z,7.75
2023-05-18T05:20:09.934Z,7.77
2023-05-18T05:22:12.578Z,7.81
2023-05-18T05:24:17.504Z,7.84
2023-05-18T05:26:21.382Z,7.86
2023-05-18T05:28:23.974Z,7.87
2023-05-18T05:30:26.600Z,7.89
2023-05-18T05:32:29.234Z,7.92
2023-05-18T05:34:33.230Z,7.96
2023-05-18T05:36:35.825Z,7.98
2023-05-18T05:38:38.441Z,7.99
2023-05-18T05:40:41.283Z,8.01
2023-05-18T05:42:44.307Z,8.04
2023-05-18T05:44:50.000Z,8.07
2023-05-18T05:46:52.613Z,8.09
2023-05-18T05:48:55.966Z,8.11
2023-05-18T05:50:59.898Z,8.12
2023-05-18T05:53:02.597Z,8.10
2023-05-18T05:55:06.153Z,8.12
2023-05-18T05:57:08.779Z,8.14
2023-05-18T05:59:11.624Z,8.16
2023-05-18T06:01:14.229Z,8.19
2023-05-18T06:03:16.861Z,8.22
2023-05-18T06:05:19.474Z,8.24
2023-05-18T06:07:23.414Z,8.28
2023-05-18T06:09:26.347Z,8.33
2023-05-18T06:11:28.970Z,8.36
2023-05-18T06:13:32.016Z,8.38
2023-05-18T06:15:34.681Z,8.40
2023-05-18T06:17:38.588Z,8.41
2023-05-18T06:19:41.238Z,8.44
2023-05-18T06:21:43.974Z,8.46
2023-05-18T06:23:47.959Z,8.49
2023-05-18T06:25:50.678Z,8.52
2023-05-18T06:27:53.284Z,8.55
2023-05-18T06:29:55.927Z,8.59
2023-05-18T06:31:58.769Z,8.59
2023-05-18T06:34:01.794Z,8.63
2023-05-18T06:36:04.914Z,8.65
2023-05-18T06:38:07.631Z,8.68
2023-05-18T06:40:12.018Z,8.70
2023-05-18T06:42:14.639Z,8.74
2023-05-18T06:44:17.209Z,8.78
2023-05-18T06:46:21.071Z,8.80
2023-05-18T06:48:27.275Z,8.84
2023-05-18T06:50:29.913Z,8.85
2023-05-18T06:52:32.612Z,8.89
2023-05-18T06:54:35.224Z,8.93
2023-05-18T06:56:39.165Z,8.97
2023-05-18T06:58:42.951Z,8.98
2023-05-18T07:00:45.606Z,8.90
2023-05-18T07:02:48.317Z,8.98
2023-05-18T07:04:51.178Z,9.01
2023-05-18T07:06:55.762Z,9.07
2023-05-18T07:08:58.423Z,9.11
2023-05-18T07:11:02.461Z,9.16
2023-05-18T07:13:06.509Z,9.20
2023-05-18T07:15:11.435Z,9.24
2023-05-18T07:17:14.029Z,9.27
2023-05-18T07:19:16.602Z,9.32
2023-05-18T07:21:19.209Z,9.36
2023-05-18T07:23:22.402Z,9.40
2023-05-18T07:25:26.168Z,9.44
2023-05-18T07:27:28.993Z,9.47
2023-05-18T07:29:33.525Z,9.52
2023-05-18T07:31:39.039Z,9.55
2023-05-18T07:33:41.841Z,9.57
2023-05-18T07:35:44.454Z,9.61
2023-05-18T07:37:51.793Z,9.65
2023-05-18T07:39:54.420Z,9.68
2023-05-18T07:41:57.092Z,9.73
2023-05-18T07:44:02.533Z,9.78
2023-05-18T07:46:06.550Z,9.80
2023-05-18T07:48:09.220Z,9.83
2023-05-18T07:50:12.337Z,9.86
2023-05-18T07:52:15.070Z,9.89
2023-05-18T07:54:17.788Z,9.94
2023-05-18T07:56:20.408Z,9.96
2023-05-18T07:58:22.993Z,10.00
2023-05-18T08:00:25.756Z,10.06
2023-05-18T08:02:31.339Z,10.09
2023-05-18T08:04:35.556Z,10.13
2023-05-18T08:06:38.197Z,10.16
2023-05-18T08:08:40.944Z,10.18
2023-05-18T08:10:43.633Z,10.25
2023-05-18T08:12:46.348Z,10.28
2023-05-18T08:14:48.931Z,10.32
2023-05-18T08:16:51.557Z,10.36
2023-05-18T08:18:55.610Z,10.41
2023-05-18T08:20:58.266Z,10.46
2023-05-18T08:23:00.821Z,10.50
2023-05-18T08:25:04.097Z,10.54
2023-05-18T08:27:08.431Z,10.57
2023-05-18T08:29:11.052Z,10.60
2023-05-18T08:31:13.689Z,10.64
2023-05-18T08:33:19.461Z,10.68
2023-05-18T08:35:23.644Z,10.70
2023-05-18T08:37:29.416Z,10.74
2023-05-18T08:39:32.625Z,10.77
2023-05-18T08:41:40.324Z,10.80
2023-05-18T08:43:46.943Z,10.83
2023-05-18T08:45:53.781Z,10.86
2023-05-18T08:47:58.349Z,10.88
2023-05-18T08:50:03.376Z,10.92
2023-05-18T08:52:09.550Z,10.98
2023-05-18T08:54:16.629Z,11.01
2023-05-18T08:56:20.223Z,11.04
2023-05-18T08:58:28.434Z,11.06
2023-05-18T09:00:31.711Z,11.10
2023-05-18T09:02:35.129Z,11.12
2023-05-18T09:04:39.241Z,11.11
2023-05-18T09:06:42.753Z,11.16
2023-05-18T09:08:47.433Z,11.19
2023-05-18T09:10:51.460Z,11.23
2023-05-18T09:12:56.791Z,11.27
2023-05-18T09:15:01.793Z,11.31
2023-05-18T09:17:04.604Z,11.34
2023-05-18T09:19:07.302Z,11.39
2023-05-18T09:21:10.176Z,11.42
2023-05-18T09:23:13.168Z,11.46
2023-05-18T09:25:18.755Z,11.53
2023-05-18T09:27:22.397Z,11.58
2023-05-18T09:29:25.089Z,11.66
2023-05-18T09:31:28.006Z,11.73
2023-05-18T09:33:35.312Z,11.83
2023-05-18T09:35:38.035Z,11.86
2023-05-18T09:37:43.176Z,11.97
2023-05-18T09:39:59.979Z,12.10
2023-05-18T09:42:05.638Z,12.17
2023-05-18T09:44:10.017Z,12.22
2023-05-18T09:46:14.154Z,12.28
2023-05-18T09:48:17.615Z,12.34
2023-05-18T09:50:20.852Z,12.36
2023-05-18T09:52:23.536Z,12.45
2023-05-18T09:54:26.204Z,12.55
2023-05-18T09:56:28.962Z,12.57
2023-05-18T09:58:34.764Z,12.59
2023-05-18T10:00:43.613Z,12.59
2023-05-18T10:02:48.935Z,12.63
2023-05-18T10:04:52.026Z,12.67
2023-05-18T10:06:54.735Z,12.70
2023-05-18T10:08:59.012Z,12.72
2023-05-18T10:11:02.091Z,12.69
2023-05-18T10:13:05.628Z,12.72
2023-05-18T10:15:15.510Z,12.76
2023-05-18T10:17:18.359Z,12.79
2023-05-18T10:19:21.706Z,12.82
2023-05-18T10:21:28.959Z,12.86
2023-05-18T10:23:33.486Z,12.89
2023-05-18T10:25:38.009Z,12.92
2023-05-18T10:27:42.513Z,12.91
2023-05-18T10:29:46.460Z,12.96
2023-05-18T10:31:52.817Z,12.97
2023-05-18T10:33:56.898Z,12.99
2023-05-18T10:35:59.551Z,13.06
2023-05-18T10:38:03.658Z,13.06
2023-05-18T10:40:08.921Z,13.08
2023-05-18T10:42:12.971Z,13.12
2023-05-18T10:44:16.762Z,13.14
2023-05-18T10:46:21.459Z,13.26
2023-05-18T10:48:26.633Z,13.27
2023-05-18T10:50:31.704Z,13.36
2023-05-18T10:52:34.878Z,13.41
2023-05-18T10:54:37.952Z,13.45
2023-05-18T10:56:44.574Z,13.48
2023-05-18T10:58:48.152Z,13.63
2023-05-18T11:00:53.164Z,13.62
2023-05-18T11:02:56.292Z,13.63
2023-05-18T11:05:00.841Z,13.70
2023-05-18T11:07:03.697Z,13.71
2023-05-18T11:09:07.088Z,13.73
2023-05-18T11:11:09.708Z,13.76
2023-05-18T11:13:12.461Z,13.78
2023-05-18T11:15:15.054Z,13.81
2023-05-18T11:17:22.225Z,13.83
2023-05-18T11:19:26.225Z,13.85
2023-05-18T11:21:53.129Z,13.92
2023-05-18T11:24:14.922Z,13.94
2023-05-18T11:26:17.608Z,13.97
2023-05-18T11:28:23.337Z,14.06
2023-05-18T11:30:29.708Z,14.04
2023-05-18T11:32:34.110Z,14.06
2023-05-18T11:34:45.792Z,14.04
2023-05-18T11:36:56.281Z,14.04
2023-05-18T11:39:06.774Z,14.09
2023-05-18T11:41:10.948Z,14.09
2023-05-18T11:43:21.537Z,14.10
2023-05-18T11:45:24.308Z,14.12
2023-05-18T11:47:32.032Z,14.15
2023-05-18T11:49:38.722Z,14.19
2023-05-18T11:51:58.798Z,14.28
2023-05-18T11:54:01.915Z,14.34
2023-05-18T11:56:06.522Z,14.39
2023-05-18T11:58:10.378Z,14.42
2023-05-18T12:00:15.054Z,14.45
2023-05-18T12:02:22.293Z,14.45
2023-05-18T12:04:25.801Z,14.42
2023-05-18T12:06:29.231Z,14.45
2023-05-18T12:08:32.111Z,14.51
2023-05-18T12:10:36.687Z,14.55
2023-05-18T12:12:40.938Z,14.57
2023-05-18T12:14:45.141Z,14.56
2023-05-18T12:16:48.746Z,14.57
2023-05-18T12:18:51.864Z,14.57
2023-05-18T12:20:54.548Z,14.52
2023-05-18T12:23:01.149Z,14.48
2023-05-18T12:25:03.960Z,14.47
2023-05-18T12:27:08.558Z,14.51
2023-05-18T12:29:15.008Z,14.50
2023-05-18T12:31:17.740Z,14.48
2023-05-18T12:33:22.080Z,14.45
2023-05-18T12:35:25.373Z,14.50
2023-05-18T12:37:34.248Z,14.51
2023-05-18T12:39:52.491Z,14.50
2023-05-18T12:41:55.150Z,14.52
2023-05-18T12:43:58.418Z,14.57
2023-05-18T12:46:03.193Z,14.69
2023-05-18T12:48:06.406Z,14.74
2023-05-18T12:50:09.905Z,14.82
2023-05-18T12:52:14.130Z,14.88
2023-05-18T12:54:16.838Z,15.00
2023-05-18T12:56:20.932Z,15.02
2023-05-18T12:58:23.557Z,15.02
2023-05-18T13:00:26.177Z,15.01
2023-05-18T13:02:32.411Z,14.97
2023-05-18T13:04:36.087Z,14.90
2023-05-18T13:06:39.178Z,14.95
2023-05-18T13:08:42.222Z,14.95
2023-05-18T13:10:45.540Z,14.93
2023-05-18T13:12:50.020Z,14.96
2023-05-18T13:14:54.262Z,14.99
2023-05-18T13:16:57.663Z,15.01
2023-05-18T13:19:06.620Z,15.01
2023-05-18T13:21:09.262Z,15.03
2023-05-18T13:23:14.078Z,15.00
2023-05-18T13:25:16.682Z,15.00
2023-05-18T13:27:19.277Z,14.99
2023-05-18T13:29:21.880Z,14.93
2023-05-18T13:31:25.057Z,14.90
2023-05-18T13:33:27.807Z,14.87
2023-05-18T13:35:32.074Z,14.88
2023-05-18T13:37:35.060Z,14.85
2023-05-18T13:39:37.682Z,14.84
2023-05-18T13:41:40.295Z,14.99
2023-05-18T13:43:43.232Z,15.13
2023-05-18T13:45:45.939Z,15.22
2023-05-18T13:47:50.757Z,15.24
2023-05-18T13:49:53.416Z,15.25
2023-05-18T13:51:59.283Z,15.23
2023-05-18T13:54:02.307Z,15.20
2023-05-18T13:56:05.407Z,15.17
2023-05-18T13:58:08.016Z,15.12
2023-05-18T14:00:13.214Z,15.09
2023-05-18T14:02:16.114Z,15.06
2023-05-18T14:04:18.734Z,15.01
2023-05-18T14:06:23.208Z,15.00
2023-05-18T14:08:27.164Z,14.98
2023-05-18T14:10:29.932Z,14.95
2023-05-18T14:12:33.228Z,14.93
2023-05-18T14:14:36.015Z,14.93
2023-05-18T14:16:38.761Z,14.90
2023-05-18T14:18:41.377Z,14.87
2023-05-18T14:20:44.053Z,14.82
2023-05-18T14:22:46.878Z,14.84
2023-05-18T14:24:50.824Z,14.84
2023-05-18T14:26:53.651Z,14.83
2023-05-18T14:28:56.375Z,14.81
2023-05-18T14:30:59.399Z,14.83
2023-05-18T14:33:02.262Z,14.87
2023-05-18T14:35:06.912Z,14.97
2023-05-18T14:37:09.837Z,14.99
2023-05-18T14:39:12.491Z,15.01
2023-05-18T14:41:16.547Z,15.00
2023-05-18T14:43:19.109Z,14.97
2023-05-18T14:45:21.717Z,14.91
2023-05-18T14:47:24.296Z,14.85
2023-05-18T14:49:26.914Z,14.84
2023-05-18T14:51:29.551Z,14.82
2023-05-18T14:53:32.162Z,14.79
2023-05-18T14:55:34.818Z,14.76
2023-05-18T14:57:38.806Z,14.75
2023-05-18T14:59:43.101Z,14.71
2023-05-18T15:01:45.774Z,14.66
2023-05-18T15:03:51.474Z,14.66
2023-05-18T15:05:54.202Z,14.67
2023-05-18T15:07:56.857Z,14.67
2023-05-18T15:09:59.442Z,14.62
2023-05-18T15:12:02.042Z,14.66
2023-05-18T15:14:06.042Z,14.67
2023-05-18T15:16:08.710Z,14.69
2023-05-18T15:18:11.782Z,14.66
2023-05-18T15:20:14.757Z,14.68
2023-05-18T15:22:17.340Z,14.69
2023-05-18T15:24:19.924Z,14.67
2023-05-18T15:26:22.599Z,14.69
2023-05-18T15:28:25.398Z,14.69
2023-05-18T15:30:30.097Z,14.69
2023-05-18T15:32:32.855Z,14.67
2023-05-18T15:34:35.569Z,14.64
2023-05-18T15:36:38.263Z,14.62
2023-05-18T15:38:41.055Z,14.59
2023-05-18T15:40:46.762Z,14.57
2023-05-18T15:42:50.433Z,14.55
2023-05-18T15:44:53.078Z,14.54
2023-05-18T15:46:57.110Z,14.51
2023-05-18T15:48:59.744Z,14.50
2023-05-18T15:51:02.354Z,14.49
2023-05-18T15:53:04.949Z,14.49
2023-05-18T15:55:08.467Z,14.49
2023-05-18T15:57:11.073Z,14.48
2023-05-18T15:59:13.649Z,14.47
2023-05-18T16:01:16.308Z,14.45
2023-05-18T16:03:20.390Z,14.46
2023-05-18T16:05:22.997Z,14.45
2023-05-18T16:07:25.582Z,14.43
2023-05-18T16:09:28.148Z,14.42
2023-05-18T16:11:30.824Z,14.42
2023-05-18T16:13:33.516Z,14.41
2023-05-18T16:15:36.458Z,14.41
2023-05-18T16:17:39.141Z,14.41
2023-05-18T16:19:43.094Z,14.35
2023-05-18T16:21:45.690Z,14.38
2023-05-18T16:23:48.437Z,14.37
2023-05-18T16:25:51.071Z,14.37
2023-05-18T16:27:53.644Z,14.37
2023-05-18T16:29:56.232Z,14.36
2023-05-18T16:31:58.843Z,14.36
2023-05-18T16:34:01.458Z,14.37
2023-05-18T16:36:06.293Z,14.35
2023-05-18T16:38:08.941Z,14.36
2023-05-18T16:40:12.047Z,14.37
2023-05-18T16:42:14.659Z,14.36
2023-05-18T16:44:17.270Z,14.38
2023-05-18T16:46:20.453Z,14.37
2023-05-18T16:48:23.167Z,14.40
2023-05-18T16:50:27.723Z,14.40
2023-05-18T16:52:31.665Z,14.41
2023-05-18T16:54:34.234Z,14.42
2023-05-18T16:56:36.805Z,14.43
2023-05-18T16:58:39.971Z,14.45
2023-05-18T17:00:42.600Z,14.46
2023-05-18T17:02:45.897Z,14.45
2023-05-18T17:04:50.386Z,14.46
2023-05-18T17:06:53.000Z,14.46
2023-05-18T17:08:58.529Z,14.46
2023-05-18T17:11:01.344Z,14.46
2023-05-18T17:13:04.094Z,14.46
2023-05-18T17:15:07.640Z,14.45
2023-05-18T17:17:10.401Z,14.38
2023-05-18T17:19:13.565Z,14.41
2023-05-18T17:21:16.275Z,14.42
2023-05-18T17:23:18.871Z,14.41
2023-05-18T17:25:22.825Z,14.43
2023-05-18T17:27:25.559Z,14.43
2023-05-18T17:29:28.220Z,14.43
2023-05-18T17:31:30.864Z,14.43
2023-05-18T17:33:33.512Z,14.43
2023-05-18T17:35:36.140Z,14.41
2023-05-18T17:37:38.763Z,14.41
2023-05-18T17:39:41.321Z,14.40
2023-05-18T17:41:45.386Z,14.41
2023-05-18T17:43:48.936Z,14.38
2023-05-18T17:45:51.657Z,14.39
2023-05-18T17:47:54.519Z,14.40
2023-05-18T17:49:57.104Z,14.39
2023-05-18T17:51:59.756Z,14.39
2023-05-18T17:54:02.400Z,14.39
2023-05-18T17:56:05.447Z,14.38
2023-05-18T17:58:09.396Z,14.38
2023-05-18T18:00:13.383Z,14.36
2023-05-18T18:02:16.093Z,14.37
2023-05-18T18:04:18.858Z,14.37
2023-05-18T18:06:22.630Z,14.34
2023-05-18T18:08:25.655Z,14.33
2023-05-18T18:10:28.387Z,14.33
2023-05-18T18:12:31.249Z,14.31
2023-05-18T18:14:35.277Z,14.32
2023-05-18T18:16:37.948Z,14.33
2023-05-18T18:18:40.982Z,14.32
2023-05-18T18:20:44.144Z,14.31
2023-05-18T18:22:47.715Z,14.30
2023-05-18T18:24:50.288Z,14.29
2023-05-18T18:26:53.555Z,14.30
2023-05-18T18:28:56.143Z,14.29
2023-05-18T18:31:00.573Z,14.29
2023-05-18T18:33:03.986Z,14.28
2023-05-18T18:35:07.213Z,14.27
2023-05-18T18:37:09.837Z,14.26
2023-05-18T18:39:13.326Z,14.25
2023-05-18T18:41:17.295Z,14.25
2023-05-18T18:43:19.915Z,14.24
2023-05-18T18:45:22.513Z,14.24
2023-05-18T18:47:26.563Z,14.23
2023-05-18T18:49:29.190Z,14.23
2023-05-18T18:51:32.462Z,14.21
2023-05-18T18:53:35.062Z,14.19
2023-05-18T18:55:37.653Z,14.19
2023-05-18T18:57:40.554Z,14.18
2023-05-18T18:59:43.126Z,14.17
2023-05-18T19:01:46.419Z,14.17
2023-05-18T19:03:52.636Z,14.16
2023-05-18T19:05:55.318Z,14.13
2023-05-18T19:08:01.767Z,14.14
2023-05-18T19:10:05.388Z,14.15
2023-05-18T19:12:09.201Z,14.14
2023-05-18T19:14:11.869Z,14.11
2023-05-18T19:16:17.382Z,14.12
2023-05-18T19:18:20.456Z,14.12
2023-05-18T19:20:24.636Z,14.12
2023-05-18T19:22:27.226Z,14.06
2023-05-18T19:24:29.990Z,14.09
2023-05-18T19:26:32.822Z,14.09
2023-05-18T19:28:35.487Z,14.10
2023-05-18T19:30:38.068Z,14.10
2023-05-18T19:32:41.098Z,14.09
2023-05-18T19:34:43.708Z,14.10
2023-05-18T19:36:47.658Z,14.09
2023-05-18T19:38:52.391Z,14.08
2023-05-18T19:40:55.047Z,14.08
2023-05-18T19:42:59.657Z,14.09
2023-05-18T19:45:02.350Z,14.08
2023-05-18T19:47:05.733Z,14.05
2023-05-18T19:49:10.045Z,14.04
2023-05-18T19:51:12.649Z,14.05
2023-05-18T19:53:16.762Z,14.05
2023-05-18T19:55:21.029Z,14.04
2023-05-18T19:57:23.707Z,14.04
2023-05-18T19:59:26.852Z,14.02
2023-05-18T20:01:29.515Z,14.02
2023-05-18T20:03:32.290Z,14.02
2023-05-18T20:05:34.979Z,14.02
2023-05-18T20:07:37.819Z,14.02
2023-05-18T20:09:41.740Z,14.04
2023-05-18T20:11:44.765Z,14.03
2023-05-18T20:13:48.973Z,14.02
2023-05-18T20:15:51.830Z,14.01
2023-05-18T20:17:54.542Z,14.01
2023-05-18T20:19:57.884Z,14.01
2023-05-18T20:22:00.559Z,14.00
2023-05-18T20:24:05.286Z,14.00
2023-05-18T20:26:09.833Z,14.00
2023-05-18T20:28:13.436Z,14.00
2023-05-18T20:30:16.134Z,13.98
2023-05-18T20:32:18.812Z,13.97
2023-05-18T20:34:21.400Z,13.96
2023-05-18T20:36:25.964Z,13.94
2023-05-18T20:38:28.619Z,13.94
2023-05-18T20:40:31.810Z,13.93
2023-05-18T20:42:41.326Z,13.94
2023-05-18T20:44:45.018Z,13.93
2023-05-18T20:46:47.718Z,13.94
2023-05-18T20:48:52.392Z,13.93
2023-05-18T20:50:54.983Z,13.93
2023-05-18T20:52:57.677Z,13.93
2023-05-18T20:55:00.715Z,13.92
2023-05-18T20:57:06.936Z,13.91
2023-05-18T20:59:12.508Z,13.91
2023-05-18T21:01:18.982Z,13.89
2023-05-18T21:03:22.230Z,13.90
2023-05-18T21:05:24.965Z,13.90
2023-05-18T21:07:30.420Z,13.88
2023-05-18T21:09:38.494Z,13.87
2023-05-18T21:11:41.290Z,13.87
2023-05-18T21:13:43.887Z,13.87
2023-05-18T21:15:48.240Z,13.88
2023-05-18T21:17:50.930Z,13.87
2023-05-18T21:19:54.136Z,13.87
2023-05-18T21:21:56.801Z,13.86
2023-05-18T21:23:59.519Z,13.86
2023-05-18T21:26:03.592Z,13.87
2023-05-18T21:28:06.619Z,13.87
2023-05-18T21:32:30.102Z,13.85
2023-05-18T21:34:33.188Z,13.84
2023-05-18T21:36:36.188Z,13.83
2023-05-18T21:38:40.863Z,13.82
2023-05-18T21:40:43.975Z,13.82
2023-05-18T21:42:47.189Z,13.80
2023-05-18T21:45:07.899Z,13.80
2023-05-18T21:47:11.004Z,13.79
2023-05-18T21:49:15.316Z,13.79
2023-05-18T21:51:18.360Z,13.77
2023-05-18T21:53:21.398Z,13.77
2023-05-18T21:55:25.193Z,13.77
2023-05-18T21:57:27.878Z,13.76
2023-05-18T21:59:32.413Z,13.77
2023-05-18T22:01:35.354Z,13.77
2023-05-18T22:03:39.877Z,13.76
2023-05-18T22:08:24.074Z,13.78
2023-05-18T22:10:27.074Z,13.78
2023-05-18T22:12:30.938Z,13.79
2023-05-18T22:14:33.886Z,13.79
2023-05-18T22:18:55.945Z,13.78
2023-05-18T22:20:59.963Z,13.77
2023-05-18T22:23:05.620Z,13.77
2023-05-18T22:25:09.145Z,13.77
2023-05-18T22:27:12.211Z,13.77
2023-05-18T22:29:16.172Z,13.77
2023-05-18T22:31:19.271Z,13.77
2023-05-18T22:33:21.968Z,13.76
2023-05-18T22:35:24.914Z,13.73
2023-05-18T22:37:30.217Z,13.71
2023-05-18T22:39:33.184Z,13.71
2023-05-18T22:41:35.874Z,13.70
2023-05-18T22:43:38.543Z,13.70
2023-05-18T22:45:42.751Z,13.69
2023-05-18T22:47:46.228Z,13.68
2023-05-18T22:49:49.166Z,13.67
2023-05-18T22:51:53.206Z,13.68
2023-05-18T22:53:57.696Z,13.67
2023-05-18T22:56:00.411Z,13.67
2023-05-18T22:58:03.229Z,13.67
2023-05-18T23:00:07.827Z,13.67
2023-05-18T23:02:10.494Z,13.66
2023-05-18T23:04:18.025Z,13.65
2023-05-18T23:06:24.097Z,13.65
2023-05-18T23:08:27.264Z,13.64
2023-05-18T23:10:37.633Z,13.63
2023-05-18T23:12:41.566Z,13.63
2023-05-18T23:14:45.900Z,13.62
2023-05-18T23:16:50.395Z,13.61
2023-05-18T23:18:53.738Z,13.59
2023-05-18T23:20:58.522Z,13.59
2023-05-18T23:23:01.283Z,13.59
2023-05-18T23:25:08.317Z,13.58
2023-05-18T23:27:12.637Z,13.58
2023-05-18T23:29:15.480Z,13.58
2023-05-18T23:31:18.103Z,13.57
2023-05-18T23:33:21.427Z,13.55
2023-05-18T23:35:25.917Z,13.54
2023-05-18T23:37:29.842Z,13.54
2023-05-18T23:39:34.370Z,13.52
2023-05-18T23:41:39.136Z,13.50
2023-05-18T23:43:46.104Z,13.50
2023-05-18T23:45:54.767Z,13.49
2023-05-18T23:48:03.481Z,13.47
2023-05-18T23:50:09.751Z,13.47
2023-05-18T23:52:14.177Z,13.47
2023-05-18T23:54:17.530Z,13.46
2023-05-18T23:56:22.057Z,13.45
2023-05-18T23:58:28.927Z,13.46
